sensor_id;sensor_type;location;lat;lon;timestamp;temperature;humidity
2611;DHT22;5612;51.134;17.058;2023-04-03T00:00:24;2.10;99.90
2611;DHT22;5612;51.134;17.058;2023-04-03T00:02:55;2.10;99.90
2611;DHT22;5612;51.134;17.058;2023-04-03T00:05:24;2.10;99.90
2611;DHT22;5612;51.134;17.058;2023-04-03T00:07:54;2.00;99.90
2611;DHT22;5612;51.134;17.058;2023-04-03T00:10:23;1.90;99.90
2611;DHT22;5612;51.134;17.058;2023-04-03T00:12:53;2.00;99.90
2611;DHT22;5612;51.134;17.058;2023-04-03T00:15:23;2.00;99.90
2611;DHT22;5612;51.134;17.058;2023-04-03T00:17:52;1.90;99.90
2611;DHT22;5612;51.134;17.058;2023-04-03T00:20:24;1.90;99.90
2611;DHT22;5612;51.134;17.058;2023-04-03T00:22:54;1.90;99.90
2611;DHT22;5612;51.134;17.058;2023-04-03T00:25:24;1.80;99.90
2611;DHT22;5612;51.134;17.058;2023-04-03T00:27:53;1.70;99.90
2611;DHT22;5612;51.134;17.058;2023-04-03T00:30:23;1.80;99.90
2611;DHT22;5612;51.134;17.058;2023-04-03T00:32:53;1.70;99.90
2611;DHT22;5612;51.134;17.058;2023-04-03T00:35:25;1.70;99.90
2611;DHT22;5612;51.134;17.058;2023-04-03T00:37:55;1.60;99.90
2611;DHT22;5612;51.134;17.058;2023-04-03T00:40:26;1.60;99.90
2611;DHT22;5612;51.134;17.058;2023-04-03T00:42:57;1.50;1.00
2611;DHT22;5612;51.134;17.058;2023-04-03T00:45:35;1.50;1.00
2611;DHT22;5612;51.134;17.058;2023-04-03T00:48:07;1.40;1.00
2611;DHT22;5612;51.134;17.058;2023-04-03T00:50:41;1.40;1.00
2611;DHT22;5612;51.134;17.058;2023-04-03T00:53:13;1.50;1.00
2611;DHT22;5612;51.134;17.058;2023-04-03T00:55:46;1.50;1.00
2611;DHT22;5612;51.134;17.058;2023-04-03T00:58:18;1.50;1.00
2611;DHT22;5612;51.134;17.058;2023-04-03T01:00:54;1.40;1.00
2611;DHT22;5612;51.134;17.058;2023-04-03T01:03:25;1.40;1.00
2611;DHT22;5612;51.134;17.058;2023-04-03T01:05:56;1.30;1.00
2611;DHT22;5612;51.134;17.058;2023-04-03T01:08:26;1.20;1.00
2611;DHT22;5612;51.134;17.058;2023-04-03T01:10:56;1.20;1.00
2611;DHT22;5612;51.134;17.058;2023-04-03T01:13:28;1.20;1.00
2611;DHT22;5612;51.134;17.058;2023-04-03T01:16:01;1.20;73.30
2611;DHT22;5612;51.134;17.058;2023-04-03T01:18:32;1.20;34.30
2611;DHT22;5612;51.134;17.058;2023-04-03T01:21:27;1.20;85.30
2611;DHT22;5612;51.134;17.058;2023-04-03T01:24:18;1.20;99.90
2611;DHT22;5612;51.134;17.058;2023-04-03T01:26:50;1.20;99.90
2611;DHT22;5612;51.134;17.058;2023-04-03T01:29:20;1.30;99.90
2611;DHT22;5612;51.134;17.058;2023-04-03T01:31:53;1.40;91.50
2611;DHT22;5612;51.134;17.058;2023-04-03T01:34:23;1.40;1.00
2611;DHT22;5612;51.134;17.058;2023-04-03T01:36:53;1.40;35.00
2611;DHT22;5612;51.134;17.058;2023-04-03T01:39:24;1.50;20.70
2611;DHT22;5612;51.134;17.058;2023-04-03T01:41:53;1.50;1.00
2611;DHT22;5612;51.134;17.058;2023-04-03T01:44:23;1.40;1.00
2611;DHT22;5612;51.134;17.058;2023-04-03T01:46:54;1.50;1.00
2611;DHT22;5612;51.134;17.058;2023-04-03T01:49:24;1.50;1.00
2611;DHT22;5612;51.134;17.058;2023-04-03T01:51:54;1.40;1.00
2611;DHT22;5612;51.134;17.058;2023-04-03T01:54:23;1.60;1.00
2611;DHT22;5612;51.134;17.058;2023-04-03T01:56:53;1.40;34.90
2611;DHT22;5612;51.134;17.058;2023-04-03T01:59:23;1.30;99.90
2611;DHT22;5612;51.134;17.058;2023-04-03T02:01:54;1.30;99.90
2611;DHT22;5612;51.134;17.058;2023-04-03T02:04:24;1.20;99.90
2611;DHT22;5612;51.134;17.058;2023-04-03T02:06:54;1.10;1.00
2611;DHT22;5612;51.134;17.058;2023-04-03T02:09:23;1.10;99.90
2611;DHT22;5612;51.134;17.058;2023-04-03T02:11:54;1.10;1.00
2611;DHT22;5612;51.134;17.058;2023-04-03T02:14:23;1.00;1.00
2611;DHT22;5612;51.134;17.058;2023-04-03T02:16:56;0.90;1.00
2611;DHT22;5612;51.134;17.058;2023-04-03T02:19:26;0.90;99.90
2611;DHT22;5612;51.134;17.058;2023-04-03T02:21:55;0.80;99.90
2611;DHT22;5612;51.134;17.058;2023-04-03T02:24:25;0.80;99.90
2611;DHT22;5612;51.134;17.058;2023-04-03T02:26:55;0.80;1.00
2611;DHT22;5612;51.134;17.058;2023-04-03T02:29:25;0.80;1.00
2611;DHT22;5612;51.134;17.058;2023-04-03T02:31:56;0.80;1.00
2611;DHT22;5612;51.134;17.058;2023-04-03T02:34:25;0.70;1.00
2611;DHT22;5612;51.134;17.058;2023-04-03T02:36:55;0.60;99.90
2611;DHT22;5612;51.134;17.058;2023-04-03T02:39:25;0.60;27.80
2611;DHT22;5612;51.134;17.058;2023-04-03T02:41:54;0.50;99.90
2611;DHT22;5612;51.134;17.058;2023-04-03T02:44:24;0.50;99.90
2611;DHT22;5612;51.134;17.058;2023-04-03T02:46:54;0.50;99.90
2611;DHT22;5612;51.134;17.058;2023-04-03T02:49:25;0.50;1.00
2611;DHT22;5612;51.134;17.058;2023-04-03T02:51:54;0.50;1.00
2611;DHT22;5612;51.134;17.058;2023-04-03T02:54:24;0.40;1.00
2611;DHT22;5612;51.134;17.058;2023-04-03T02:56:56;0.40;44.00
2611;DHT22;5612;51.134;17.058;2023-04-03T02:59:26;0.40;99.90
2611;DHT22;5612;51.134;17.058;2023-04-03T03:01:56;0.50;99.90
2611;DHT22;5612;51.134;17.058;2023-04-03T03:04:28;0.50;25.70
2611;DHT22;5612;51.134;17.058;2023-04-03T03:06:57;0.60;9.50
2611;DHT22;5612;51.134;17.058;2023-04-03T03:09:27;0.60;1.00
2611;DHT22;5612;51.134;17.058;2023-04-03T03:11:57;0.60;1.00
2611;DHT22;5612;51.134;17.058;2023-04-03T03:14:26;0.60;1.00
2611;DHT22;5612;51.134;17.058;2023-04-03T03:16:55;0.70;99.90
2611;DHT22;5612;51.134;17.058;2023-04-03T03:19:27;0.50;1.00
2611;DHT22;5612;51.134;17.058;2023-04-03T03:21:56;0.50;99.90
2611;DHT22;5612;51.134;17.058;2023-04-03T03:24:26;0.40;99.90
2611;DHT22;5612;51.134;17.058;2023-04-03T03:26:55;0.40;99.90
2611;DHT22;5612;51.134;17.058;2023-04-03T03:29:25;0.30;99.90
2611;DHT22;5612;51.134;17.058;2023-04-03T03:31:54;0.30;99.90
2611;DHT22;5612;51.134;17.058;2023-04-03T03:34:24;0.20;99.90
2611;DHT22;5612;51.134;17.058;2023-04-03T03:36:55;0.20;99.90
2611;DHT22;5612;51.134;17.058;2023-04-03T03:39:25;0.00;1.00
2611;DHT22;5612;51.134;17.058;2023-04-03T03:41:54;0.10;1.00
2611;DHT22;5612;51.134;17.058;2023-04-03T03:44:23;0.10;1.00
2611;DHT22;5612;51.134;17.058;2023-04-03T03:46:53;0.00;1.00
2611;DHT22;5612;51.134;17.058;2023-04-03T03:49:23;0.00;1.00
2611;DHT22;5612;51.134;17.058;2023-04-03T03:51:55;-0.10;1.00
2611;DHT22;5612;51.134;17.058;2023-04-03T03:54:24;-0.10;1.00
2611;DHT22;5612;51.134;17.058;2023-04-03T03:56:54;-0.10;1.00
2611;DHT22;5612;51.134;17.058;2023-04-03T03:59:23;-0.20;1.00
2611;DHT22;5612;51.134;17.058;2023-04-03T04:01:54;-0.20;1.00
2611;DHT22;5612;51.134;17.058;2023-04-03T04:04:24;-0.20;1.00
2611;DHT22;5612;51.134;17.058;2023-04-03T04:06:55;-0.20;1.00
2611;DHT22;5612;51.134;17.058;2023-04-03T04:09:25;-0.20;1.00
2611;DHT22;5612;51.134;17.058;2023-04-03T04:11:55;-0.30;1.00
2611;DHT22;5612;51.134;17.058;2023-04-03T04:14:24;-0.30;1.00
2611;DHT22;5612;51.134;17.058;2023-04-03T04:16:54;-0.30;1.00
2611;DHT22;5612;51.134;17.058;2023-04-03T04:19:24;-0.30;1.00
2611;DHT22;5612;51.134;17.058;2023-04-03T04:21:55;-0.30;1.00
2611;DHT22;5612;51.134;17.058;2023-04-03T04:24:25;-0.30;1.00
2611;DHT22;5612;51.134;17.058;2023-04-03T04:26:54;-0.40;1.00
2611;DHT22;5612;51.134;17.058;2023-04-03T04:29:24;-0.40;1.00
2611;DHT22;5612;51.134;17.058;2023-04-03T04:31:54;-0.40;1.00
2611;DHT22;5612;51.134;17.058;2023-04-03T04:34:23;-0.40;1.00
2611;DHT22;5612;51.134;17.058;2023-04-03T04:36:55;-0.40;1.00
2611;DHT22;5612;51.134;17.058;2023-04-03T04:39:25;-0.40;1.00
2611;DHT22;5612;51.134;17.058;2023-04-03T04:41:54;-0.40;1.00
2611;DHT22;5612;51.134;17.058;2023-04-03T04:44:24;-0.40;1.00
2611;DHT22;5612;51.134;17.058;2023-04-03T04:46:54;-0.30;1.00
2611;DHT22;5612;51.134;17.058;2023-04-03T04:49:23;-0.40;1.00
2611;DHT22;5612;51.134;17.058;2023-04-03T04:51:53;-0.40;1.00
2611;DHT22;5612;51.134;17.058;2023-04-03T04:54:24;-0.40;1.00
2611;DHT22;5612;51.134;17.058;2023-04-03T04:56:54;-0.30;1.00
2611;DHT22;5612;51.134;17.058;2023-04-03T04:59:23;-0.30;1.00
2611;DHT22;5612;51.134;17.058;2023-04-03T05:01:53;-0.30;1.00
2611;DHT22;5612;51.134;17.058;2023-04-03T05:04:23;-0.30;1.00
2611;DHT22;5612;51.134;17.058;2023-04-03T05:06:52;-0.20;1.00
2611;DHT22;5612;51.134;17.058;2023-04-03T05:09:23;-0.10;1.00
2611;DHT22;5612;51.134;17.058;2023-04-03T05:11:53;-0.10;1.00
2611;DHT22;5612;51.134;17.058;2023-04-03T05:14:24;-0.10;1.00
2611;DHT22;5612;51.134;17.058;2023-04-03T05:16:53;0.00;1.00
2611;DHT22;5612;51.134;17.058;2023-04-03T05:19:23;0.00;1.00
2611;DHT22;5612;51.134;17.058;2023-04-03T05:21:52;0.10;1.00
2611;DHT22;5612;51.134;17.058;2023-04-03T05:24:24;0.10;1.00
2611;DHT22;5612;51.134;17.058;2023-04-03T05:26:54;0.10;1.00
2611;DHT22;5612;51.134;17.058;2023-04-03T05:29:23;0.20;1.00
2611;DHT22;5612;51.134;17.058;2023-04-03T05:31:52;0.30;1.00
2611;DHT22;5612;51.134;17.058;2023-04-03T05:34:21;0.50;1.00
2611;DHT22;5612;51.134;17.058;2023-04-03T05:36:50;0.70;99.90
2611;DHT22;5612;51.134;17.058;2023-04-03T05:39:19;0.80;99.90
2611;DHT22;5612;51.134;17.058;2023-04-03T05:41:51;0.90;1.00
2611;DHT22;5612;51.134;17.058;2023-04-03T05:44:20;0.90;99.90
2611;DHT22;5612;51.134;17.058;2023-04-03T05:46:50;1.00;1.00
2611;DHT22;5612;51.134;17.058;2023-04-03T05:49:19;1.10;1.00
2611;DHT22;5612;51.134;17.058;2023-04-03T05:51:48;1.30;1.00
2611;DHT22;5612;51.134;17.058;2023-04-03T05:54:24;1.30;99.90
2611;DHT22;5612;51.134;17.058;2023-04-03T05:56:55;1.50;6.90
2611;DHT22;5612;51.134;17.058;2023-04-03T05:59:24;1.50;99.90
2611;DHT22;5612;51.134;17.058;2023-04-03T06:01:54;1.40;1.00
2611;DHT22;5612;51.134;17.058;2023-04-03T06:04:23;1.60;99.90
2611;DHT22;5612;51.134;17.058;2023-04-03T06:06:54;1.80;99.90
2611;DHT22;5612;51.134;17.058;2023-04-03T06:09:26;1.90;60.70
2611;DHT22;5612;51.134;17.058;2023-04-03T06:11:58;2.00;35.30
2611;DHT22;5612;51.134;17.058;2023-04-03T06:14:27;1.90;1.00
2611;DHT22;5612;51.134;17.058;2023-04-03T06:16:56;1.90;1.00
2611;DHT22;5612;51.134;17.058;2023-04-03T06:19:25;2.00;1.00
2611;DHT22;5612;51.134;17.058;2023-04-03T06:21:53;2.10;1.00
2611;DHT22;5612;51.134;17.058;2023-04-03T06:24:24;2.10;1.00
2611;DHT22;5612;51.134;17.058;2023-04-03T06:26:54;2.10;1.00
2611;DHT22;5612;51.134;17.058;2023-04-03T06:29:25;2.10;1.00
2611;DHT22;5612;51.134;17.058;2023-04-03T06:31:55;2.20;99.90
2611;DHT22;5612;51.134;17.058;2023-04-03T06:34:26;2.30;99.90
2611;DHT22;5612;51.134;17.058;2023-04-03T06:36:55;2.50;99.90
2611;DHT22;5612;51.134;17.058;2023-04-03T06:39:24;2.90;99.90
2611;DHT22;5612;51.134;17.058;2023-04-03T06:41:53;3.00;99.90
2611;DHT22;5612;51.134;17.058;2023-04-03T06:44:24;3.30;99.90
2611;DHT22;5612;51.134;17.058;2023-04-03T06:46:53;3.50;92.70
2611;DHT22;5612;51.134;17.058;2023-04-03T06:49:22;3.90;64.20
2611;DHT22;5612;51.134;17.058;2023-04-03T06:51:51;4.00;25.40
2611;DHT22;5612;51.134;17.058;2023-04-03T06:54:20;4.10;1.00
2611;DHT22;5612;51.134;17.058;2023-04-03T06:56:49;4.40;1.00
2611;DHT22;5612;51.134;17.058;2023-04-03T06:59:18;4.90;1.00
2611;DHT22;5612;51.134;17.058;2023-04-03T07:01:48;4.80;1.00
2611;DHT22;5612;51.134;17.058;2023-04-03T07:04:18;5.00;1.00
2611;DHT22;5612;51.134;17.058;2023-04-03T07:06:47;5.10;1.00
2611;DHT22;5612;51.134;17.058;2023-04-03T07:09:16;5.70;1.00
2611;DHT22;5612;51.134;17.058;2023-04-03T07:11:45;5.80;1.00
2611;DHT22;5612;51.134;17.058;2023-04-03T07:14:14;5.70;1.00
2611;DHT22;5612;51.134;17.058;2023-04-03T07:16:43;6.30;1.00
2611;DHT22;5612;51.134;17.058;2023-04-03T07:19:13;6.90;1.00
2611;DHT22;5612;51.134;17.058;2023-04-03T07:21:43;6.30;1.00
2611;DHT22;5612;51.134;17.058;2023-04-03T07:24:12;5.80;1.00
2611;DHT22;5612;51.134;17.058;2023-04-03T07:26:42;6.40;1.00
2611;DHT22;5612;51.134;17.058;2023-04-03T07:29:12;6.90;1.00
2611;DHT22;5612;51.134;17.058;2023-04-03T07:31:42;7.90;1.00
2611;DHT22;5612;51.134;17.058;2023-04-03T07:34:13;8.30;1.00
2611;DHT22;5612;51.134;17.058;2023-04-03T07:36:42;9.10;1.00
2611;DHT22;5612;51.134;17.058;2023-04-03T07:39:13;10.10;1.00
2611;DHT22;5612;51.134;17.058;2023-04-03T07:41:42;10.30;1.00
2611;DHT22;5612;51.134;17.058;2023-04-03T07:44:11;10.50;1.00
2611;DHT22;5612;51.134;17.058;2023-04-03T07:46:40;9.40;1.00
2611;DHT22;5612;51.134;17.058;2023-04-03T07:49:09;9.00;1.00
2611;DHT22;5612;51.134;17.058;2023-04-03T07:51:39;9.00;1.00
2611;DHT22;5612;51.134;17.058;2023-04-03T07:54:08;10.00;1.00
2611;DHT22;5612;51.134;17.058;2023-04-03T07:56:37;10.80;1.00
2611;DHT22;5612;51.134;17.058;2023-04-03T07:59:06;11.80;1.00
2611;DHT22;5612;51.134;17.058;2023-04-03T08:01:35;13.00;1.00
2611;DHT22;5612;51.134;17.058;2023-04-03T08:04:04;14.10;1.00
2611;DHT22;5612;51.134;17.058;2023-04-03T08:06:34;14.40;1.00
2611;DHT22;5612;51.134;17.058;2023-04-03T08:09:14;14.90;1.00
2611;DHT22;5612;51.134;17.058;2023-04-03T08:11:43;14.40;1.00
2611;DHT22;5612;51.134;17.058;2023-04-03T08:14:13;14.90;1.00
2611;DHT22;5612;51.134;17.058;2023-04-03T08:16:46;15.00;1.00
2611;DHT22;5612;51.134;17.058;2023-04-03T08:19:16;14.50;1.00
2611;DHT22;5612;51.134;17.058;2023-04-03T08:21:53;15.20;1.00
2611;DHT22;5612;51.134;17.058;2023-04-03T08:24:24;16.10;1.00
2611;DHT22;5612;51.134;17.058;2023-04-03T08:26:52;16.60;1.00
2611;DHT22;5612;51.134;17.058;2023-04-03T08:29:21;16.30;1.00
2611;DHT22;5612;51.134;17.058;2023-04-03T08:31:51;16.90;1.00
2611;DHT22;5612;51.134;17.058;2023-04-03T08:34:20;17.10;1.00
2611;DHT22;5612;51.134;17.058;2023-04-03T08:36:49;16.50;1.00
2611;DHT22;5612;51.134;17.058;2023-04-03T08:39:18;16.90;1.00
2611;DHT22;5612;51.134;17.058;2023-04-03T08:41:48;16.30;1.00
2611;DHT22;5612;51.134;17.058;2023-04-03T08:44:25;16.30;1.00
2611;DHT22;5612;51.134;17.058;2023-04-03T08:47:02;16.10;1.00
2611;DHT22;5612;51.134;17.058;2023-04-03T08:49:37;14.60;1.00
2611;DHT22;5612;51.134;17.058;2023-04-03T08:52:11;13.70;1.00
2611;DHT22;5612;51.134;17.058;2023-04-03T08:54:49;12.10;1.00
2611;DHT22;5612;51.134;17.058;2023-04-03T08:57:30;11.20;1.00
2611;DHT22;5612;51.134;17.058;2023-04-03T09:00:17;10.90;1.00
2611;DHT22;5612;51.134;17.058;2023-04-03T09:02:48;9.70;1.00
2611;DHT22;5612;51.134;17.058;2023-04-03T09:05:19;10.00;1.00
2611;DHT22;5612;51.134;17.058;2023-04-03T09:07:56;10.40;1.00
2611;DHT22;5612;51.134;17.058;2023-04-03T09:10:28;11.50;1.00
2611;DHT22;5612;51.134;17.058;2023-04-03T09:13:05;11.70;1.00
2611;DHT22;5612;51.134;17.058;2023-04-03T09:15:35;12.50;1.00
2611;DHT22;5612;51.134;17.058;2023-04-03T09:18:12;12.80;1.00
2611;DHT22;5612;51.134;17.058;2023-04-03T09:20:48;12.10;1.00
2611;DHT22;5612;51.134;17.058;2023-04-03T09:23:23;11.20;1.00
2611;DHT22;5612;51.134;17.058;2023-04-03T09:26:00;10.50;1.00
2611;DHT22;5612;51.134;17.058;2023-04-03T09:28:35;10.70;1.00
2611;DHT22;5612;51.134;17.058;2023-04-03T09:31:20;10.50;1.00
2611;DHT22;5612;51.134;17.058;2023-04-03T09:33:53;10.40;1.00
2611;DHT22;5612;51.134;17.058;2023-04-03T09:36:38;10.30;1.00
2611;DHT22;5612;51.134;17.058;2023-04-03T09:39:11;10.00;1.00
2611;DHT22;5612;51.134;17.058;2023-04-03T09:41:41;9.50;1.00
2611;DHT22;5612;51.134;17.058;2023-04-03T09:44:25;9.10;1.00
2611;DHT22;5612;51.134;17.058;2023-04-03T09:46:54;8.80;1.00
2611;DHT22;5612;51.134;17.058;2023-04-03T09:49:25;9.00;1.00
2611;DHT22;5612;51.134;17.058;2023-04-03T09:51:55;9.10;1.00
2611;DHT22;5612;51.134;17.058;2023-04-03T09:54:33;8.80;1.00
2611;DHT22;5612;51.134;17.058;2023-04-03T09:57:10;8.70;1.00
2611;DHT22;5612;51.134;17.058;2023-04-03T09:59:46;9.40;1.00
2611;DHT22;5612;51.134;17.058;2023-04-03T10:02:28;10.20;1.00
2611;DHT22;5612;51.134;17.058;2023-04-03T10:04:59;10.20;1.00
2611;DHT22;5612;51.134;17.058;2023-04-03T10:07:33;10.10;1.00
2611;DHT22;5612;51.134;17.058;2023-04-03T10:10:16;9.80;1.00
2611;DHT22;5612;51.134;17.058;2023-04-03T10:12:47;9.00;1.00
2611;DHT22;5612;51.134;17.058;2023-04-03T10:15:18;9.50;1.00
2611;DHT22;5612;51.134;17.058;2023-04-03T10:18:00;10.50;1.00
2611;DHT22;5612;51.134;17.058;2023-04-03T10:20:49;11.10;1.00
2611;DHT22;5612;51.134;17.058;2023-04-03T10:23:23;11.10;1.00
2611;DHT22;5612;51.134;17.058;2023-04-03T10:26:02;12.00;1.00
2611;DHT22;5612;51.134;17.058;2023-04-03T10:28:46;14.50;1.00
2611;DHT22;5612;51.134;17.058;2023-04-03T10:31:21;16.00;1.00
2611;DHT22;5612;51.134;17.058;2023-04-03T10:34:00;14.20;1.00
2611;DHT22;5612;51.134;17.058;2023-04-03T10:36:41;13.70;1.00
2611;DHT22;5612;51.134;17.058;2023-04-03T10:39:20;12.20;1.00
2611;DHT22;5612;51.134;17.058;2023-04-03T10:42:02;11.50;1.00
2611;DHT22;5612;51.134;17.058;2023-04-03T10:44:52;12.60;1.00
2611;DHT22;5612;51.134;17.058;2023-04-03T10:47:32;14.50;1.00
2611;DHT22;5612;51.134;17.058;2023-04-03T10:50:20;15.20;1.00
2611;DHT22;5612;51.134;17.058;2023-04-03T10:52:57;14.70;1.00
2611;DHT22;5612;51.134;17.058;2023-04-03T10:55:34;13.90;1.00
2611;DHT22;5612;51.134;17.058;2023-04-03T10:58:05;13.00;1.00
2611;DHT22;5612;51.134;17.058;2023-04-03T11:00:38;12.90;1.00
2611;DHT22;5612;51.134;17.058;2023-04-03T11:03:13;14.20;1.00
2611;DHT22;5612;51.134;17.058;2023-04-03T11:05:44;15.60;1.00
2611;DHT22;5612;51.134;17.058;2023-04-03T11:08:24;16.70;1.00
2611;DHT22;5612;51.134;17.058;2023-04-03T11:10:57;17.60;1.00
2611;DHT22;5612;51.134;17.058;2023-04-03T11:13:30;16.80;1.00
2611;DHT22;5612;51.134;17.058;2023-04-03T11:16:04;14.90;1.00
2611;DHT22;5612;51.134;17.058;2023-04-03T11:18:40;14.20;1.00
2611;DHT22;5612;51.134;17.058;2023-04-03T11:21:16;14.70;1.00
2611;DHT22;5612;51.134;17.058;2023-04-03T11:23:47;14.10;1.00
2611;DHT22;5612;51.134;17.058;2023-04-03T11:26:18;12.80;1.00
2611;DHT22;5612;51.134;17.058;2023-04-03T11:28:53;12.20;1.00
2611;DHT22;5612;51.134;17.058;2023-04-03T11:31:35;11.40;1.00
2611;DHT22;5612;51.134;17.058;2023-04-03T11:34:23;12.70;1.00
2611;DHT22;5612;51.134;17.058;2023-04-03T11:36:58;15.40;1.00
2611;DHT22;5612;51.134;17.058;2023-04-03T11:39:30;17.40;1.00
2611;DHT22;5612;51.134;17.058;2023-04-03T11:42:16;17.80;1.00
2611;DHT22;5612;51.134;17.058;2023-04-03T11:44:46;16.10;1.00
2611;DHT22;5612;51.134;17.058;2023-04-03T11:47:44;14.60;1.00
2611;DHT22;5612;51.134;17.058;2023-04-03T11:50:38;13.90;1.00
2611;DHT22;5612;51.134;17.058;2023-04-03T11:53:30;14.40;1.00
2611;DHT22;5612;51.134;17.058;2023-04-03T11:56:02;15.80;1.00
2611;DHT22;5612;51.134;17.058;2023-04-03T11:58:33;18.30;1.00
2611;DHT22;5612;51.134;17.058;2023-04-03T12:01:09;20.20;1.00
2611;DHT22;5612;51.134;17.058;2023-04-03T12:04:03;19.10;1.00
2611;DHT22;5612;51.134;17.058;2023-04-03T12:07:11;16.80;1.00
2611;DHT22;5612;51.134;17.058;2023-04-03T12:10:17;14.60;1.00
2611;DHT22;5612;51.134;17.058;2023-04-03T12:12:59;15.60;1.00
2611;DHT22;5612;51.134;17.058;2023-04-03T12:15:52;17.40;1.00
2611;DHT22;5612;51.134;17.058;2023-04-03T12:18:57;18.50;1.00
2611;DHT22;5612;51.134;17.058;2023-04-03T12:22:07;17.30;1.00
2611;DHT22;5612;51.134;17.058;2023-04-03T12:24:37;16.20;1.00
2611;DHT22;5612;51.134;17.058;2023-04-03T12:27:28;17.30;1.00
2611;DHT22;5612;51.134;17.058;2023-04-03T12:33:02;18.70;1.00
2611;DHT22;5612;51.134;17.058;2023-04-03T12:35:44;16.20;1.00
2611;DHT22;5612;51.134;17.058;2023-04-03T12:38:53;13.90;1.00
2611;DHT22;5612;51.134;17.058;2023-04-03T12:41:32;12.50;1.00
2611;DHT22;5612;51.134;17.058;2023-04-03T12:44:26;12.70;1.00
2611;DHT22;5612;51.134;17.058;2023-04-03T12:47:02;14.30;1.00
2611;DHT22;5612;51.134;17.058;2023-04-03T12:49:39;15.70;1.00
2611;DHT22;5612;51.134;17.058;2023-04-03T12:52:19;16.70;1.00
2611;DHT22;5612;51.134;17.058;2023-04-03T12:54:53;18.20;1.00
2611;DHT22;5612;51.134;17.058;2023-04-03T12:57:25;16.50;1.00
2611;DHT22;5612;51.134;17.058;2023-04-03T12:59:55;15.10;1.00
2611;DHT22;5612;51.134;17.058;2023-04-03T13:02:26;14.80;1.00
2611;DHT22;5612;51.134;17.058;2023-04-03T13:04:58;14.20;1.00
2611;DHT22;5612;51.134;17.058;2023-04-03T13:07:30;12.90;1.00
2611;DHT22;5612;51.134;17.058;2023-04-03T13:10:13;12.70;1.00
2611;DHT22;5612;51.134;17.058;2023-04-03T13:12:48;13.00;1.00
2611;DHT22;5612;51.134;17.058;2023-04-03T13:15:20;14.40;1.00
2611;DHT22;5612;51.134;17.058;2023-04-03T13:17:53;15.50;1.00
2611;DHT22;5612;51.134;17.058;2023-04-03T13:20:25;16.70;1.00
2611;DHT22;5612;51.134;17.058;2023-04-03T13:22:58;15.80;1.00
2611;DHT22;5612;51.134;17.058;2023-04-03T13:25:31;14.60;1.00
2611;DHT22;5612;51.134;17.058;2023-04-03T13:28:04;14.20;1.00
2611;DHT22;5612;51.134;17.058;2023-04-03T13:30:49;15.60;1.00
2611;DHT22;5612;51.134;17.058;2023-04-03T13:33:26;16.40;1.00
2611;DHT22;5612;51.134;17.058;2023-04-03T13:35:57;16.70;1.00
2611;DHT22;5612;51.134;17.058;2023-04-03T13:38:29;15.60;1.00
2611;DHT22;5612;51.134;17.058;2023-04-03T13:41:05;13.60;1.00
2611;DHT22;5612;51.134;17.058;2023-04-03T13:43:50;14.90;1.00
2611;DHT22;5612;51.134;17.058;2023-04-03T13:46:27;15.60;1.00
2611;DHT22;5612;51.134;17.058;2023-04-03T13:48:57;14.60;1.00
2611;DHT22;5612;51.134;17.058;2023-04-03T13:51:27;13.60;1.00
2611;DHT22;5612;51.134;17.058;2023-04-03T13:53:59;12.60;1.00
2611;DHT22;5612;51.134;17.058;2023-04-03T13:56:33;11.90;1.00
2611;DHT22;5612;51.134;17.058;2023-04-03T13:59:21;12.70;1.00
2611;DHT22;5612;51.134;17.058;2023-04-03T14:01:54;14.80;1.00
2611;DHT22;5612;51.134;17.058;2023-04-03T14:04:26;14.70;1.00
2611;DHT22;5612;51.134;17.058;2023-04-03T14:06:56;13.90;1.00
2611;DHT22;5612;51.134;17.058;2023-04-03T14:09:27;12.40;1.00
2611;DHT22;5612;51.134;17.058;2023-04-03T14:12:00;12.80;1.00
2611;DHT22;5612;51.134;17.058;2023-04-03T14:14:34;14.70;1.00
2611;DHT22;5612;51.134;17.058;2023-04-03T14:17:13;14.60;1.00
2611;DHT22;5612;51.134;17.058;2023-04-03T14:19:53;13.40;1.00
2611;DHT22;5612;51.134;17.058;2023-04-03T14:22:24;11.30;1.00
2611;DHT22;5612;51.134;17.058;2023-04-03T14:24:55;11.40;1.00
2611;DHT22;5612;51.134;17.058;2023-04-03T14:27:28;13.00;1.00
2611;DHT22;5612;51.134;17.058;2023-04-03T14:29:58;14.70;1.00
2611;DHT22;5612;51.134;17.058;2023-04-03T14:32:27;14.20;1.00
2611;DHT22;5612;51.134;17.058;2023-04-03T14:34:57;13.30;1.00
2611;DHT22;5612;51.134;17.058;2023-04-03T14:37:29;14.70;1.00
2611;DHT22;5612;51.134;17.058;2023-04-03T14:40:00;15.70;1.00
2611;DHT22;5612;51.134;17.058;2023-04-03T14:42:34;15.80;1.00
2611;DHT22;5612;51.134;17.058;2023-04-03T14:45:07;13.80;1.00
2611;DHT22;5612;51.134;17.058;2023-04-03T14:47:41;11.60;1.00
2611;DHT22;5612;51.134;17.058;2023-04-03T14:50:18;10.60;1.00
2611;DHT22;5612;51.134;17.058;2023-04-03T14:52:51;10.00;1.00
2611;DHT22;5612;51.134;17.058;2023-04-03T14:55:22;9.40;1.00
2611;DHT22;5612;51.134;17.058;2023-04-03T14:57:53;9.20;1.00
2611;DHT22;5612;51.134;17.058;2023-04-03T15:00:22;9.10;1.00
2611;DHT22;5612;51.134;17.058;2023-04-03T15:02:51;9.00;1.00
2611;DHT22;5612;51.134;17.058;2023-04-03T15:05:21;8.80;1.00
2611;DHT22;5612;51.134;17.058;2023-04-03T15:07:52;8.50;1.00
2611;DHT22;5612;51.134;17.058;2023-04-03T15:10:24;8.40;1.00
2611;DHT22;5612;51.134;17.058;2023-04-03T15:12:55;8.30;1.00
2611;DHT22;5612;51.134;17.058;2023-04-03T15:15:29;9.20;1.00
2611;DHT22;5612;51.134;17.058;2023-04-03T15:17:59;9.60;1.00
2611;DHT22;5612;51.134;17.058;2023-04-03T15:20:29;9.40;1.00
2611;DHT22;5612;51.134;17.058;2023-04-03T15:22:58;8.70;1.00
2611;DHT22;5612;51.134;17.058;2023-04-03T15:25:29;8.30;1.00
2611;DHT22;5612;51.134;17.058;2023-04-03T15:28:00;8.20;1.00
2611;DHT22;5612;51.134;17.058;2023-04-03T15:30:29;8.30;1.00
2611;DHT22;5612;51.134;17.058;2023-04-03T15:32:58;8.40;1.00
2611;DHT22;5612;51.134;17.058;2023-04-03T15:35:28;8.70;1.00
2611;DHT22;5612;51.134;17.058;2023-04-03T15:37:57;8.80;1.00
2611;DHT22;5612;51.134;17.058;2023-04-03T15:40:26;8.50;1.00
2611;DHT22;5612;51.134;17.058;2023-04-03T15:42:55;8.30;1.00
2611;DHT22;5612;51.134;17.058;2023-04-03T15:45:29;8.10;1.00
2611;DHT22;5612;51.134;17.058;2023-04-03T15:47:59;7.80;1.00
2611;DHT22;5612;51.134;17.058;2023-04-03T15:50:28;7.60;1.00
2611;DHT22;5612;51.134;17.058;2023-04-03T15:52:57;7.60;1.00
2611;DHT22;5612;51.134;17.058;2023-04-03T15:55:28;7.70;1.00
2611;DHT22;5612;51.134;17.058;2023-04-03T15:57:57;7.40;1.00
2611;DHT22;5612;51.134;17.058;2023-04-03T16:00:28;7.20;1.00
2611;DHT22;5612;51.134;17.058;2023-04-03T16:02:59;6.80;1.00
2611;DHT22;5612;51.134;17.058;2023-04-03T16:05:29;6.70;1.00
2611;DHT22;5612;51.134;17.058;2023-04-03T16:08:00;6.70;1.00
2611;DHT22;5612;51.134;17.058;2023-04-03T16:10:29;6.40;1.00
2611;DHT22;5612;51.134;17.058;2023-04-03T16:12:58;6.40;1.00
2611;DHT22;5612;51.134;17.058;2023-04-03T16:15:29;6.40;1.00
2611;DHT22;5612;51.134;17.058;2023-04-03T16:17:59;6.50;1.00
2611;DHT22;5612;51.134;17.058;2023-04-03T16:20:28;6.50;1.00
2611;DHT22;5612;51.134;17.058;2023-04-03T16:22:58;6.40;1.00
2611;DHT22;5612;51.134;17.058;2023-04-03T16:25:28;6.40;1.00
2611;DHT22;5612;51.134;17.058;2023-04-03T16:27:58;6.40;1.00
2611;DHT22;5612;51.134;17.058;2023-04-03T16:30:28;6.40;1.00
2611;DHT22;5612;51.134;17.058;2023-04-03T16:32:58;6.40;1.00
2611;DHT22;5612;51.134;17.058;2023-04-03T16:35:26;6.40;1.00
2611;DHT22;5612;51.134;17.058;2023-04-03T16:37:56;6.40;1.00
2611;DHT22;5612;51.134;17.058;2023-04-03T16:40:25;6.30;1.00
2611;DHT22;5612;51.134;17.058;2023-04-03T16:42:54;6.20;1.00
2611;DHT22;5612;51.134;17.058;2023-04-03T16:45:24;6.10;1.00